ADDS TAF Data INFO
IDs: Format: Raw Decoded Include METARs

Data at: 1520 UTC 16 Jan 2018

KORF 161401Z 1614/1712 34005KT 1/4SM FG VV002
  TEMPO 1614/1616 1/2SM FZFG OVC003
  FM161600 01006KT 2SM BR OVC003
  FM161800 35004KT P6SM SCT005
  FM170800 31005KT P6SM OVC070